SBTT

Tabatinga Airport

Tabatinga, Brazil
TAF SBTT 171600Z 1718/1818 14005KT 9999 SCT020 FEW035TCU TX30/1718Z T N20/1805Z BECMG 1719/1721 00000KT BECMG 1723/1724 CAVOK BECMG 1807/1809 9999 B KN005 BECMG 1811/1813 30002KT SCT012 BECMG 1815/1817 12005KT SCT020 FEW025 TCU RMK PDY
Issued Valid From Valid To
Nov-17 @ 16:00 UTC
(6 hours ago)
Nov-17 @ 18:00 UTC
(4 hours ago)
Nov-18 @ 18:00 UTC
(in 20 hours)
Expired Click to View Nov-17 @ 18:00 to Nov-17 @ 19:00
TAF SBTT 171600Z 1718/1818 14005KT 9999 SCT020 FEW035TCU TX30/1718Z T N20/1805Z
Wind Visibility Clouds
140° at 5 knots 10,000+ meters
  • Scattered at 2,000' AGL
  • Few at 3,500' AGL
Becoming Nov-17 @ 19:00 to Nov-17 @ 23:00
BECMG 1719/1721 00000KT
Visibility Clouds
10,000+ meters
  • Scattered at 2,000' AGL
  • Few at 3,500' AGL
Becoming Nov-17 @ 23:00 to Nov-18 @ 07:00
BECMG 1723/1724 CAVOK
Visibility Clouds Conditions
10,000+ meters
  • No significant clouds
Becoming Nov-18 @ 07:00 to Nov-18 @ 11:00
BECMG 1807/1809 9999 B KN005
Visibility Clouds Conditions
10,000+ meters
  • No significant clouds
Becoming Nov-18 @ 11:00 to Nov-18 @ 15:00
BECMG 1811/1813 30002KT SCT012
Wind Visibility Clouds Conditions
300° at 2 knots 10,000+ meters
  • Scattered at 1,200' AGL
Becoming Nov-18 @ 15:00 to Nov-18 @ 18:00
BECMG 1815/1817 12005KT SCT020 FEW025 TCU RMK PDY
Wind Visibility Clouds Conditions
120° at 5 knots 10,000+ meters
  • Scattered at 2,000' AGL
  • Few at 2,500' AGL
TAF SBTT 171600Z 1718/1818 14005KT 9999 SCT020 FEW035TCU TX30/1718Z T N20/1805Z BECMG 1719/1721 00000KT BECMG 1723/1724 CAVOK BECMG 1807/1809 9999 B KN005 BECMG 1811/1813 30002KT SCT012 BECMG 1815/1817 12005KT SCT020 FEW025 TCU RMK PDY
Issued Nov-17 @ 16:00 UTC
(6 hours ago)
Valid From Nov-17 @ 18:00 UTC
(4 hours ago)
Valid To Nov-18 @ 18:00 UTC
(in 20 hours)
Nov-17 @ 18:00 - Nov-17 @ 19:00
Wind Visibility
140° at 5 knots 10,000+ meters
Clouds
  • Scattered at 2,000' AGL
  • Few at 3,500' AGL
Becoming Nov-17 @ 19:00 - Nov-17 @ 23:00
Clouds
  • Scattered at 2,000' AGL
  • Few at 3,500' AGL
Becoming Nov-17 @ 23:00 - Nov-18 @ 07:00
Clouds
  • No significant clouds
Conditions
Becoming Nov-18 @ 07:00 - Nov-18 @ 11:00
Clouds
  • No significant clouds
Conditions
Becoming Nov-18 @ 11:00 - Nov-18 @ 15:00
Wind Visibility
300° at 2 knots 10,000+ meters
Clouds
  • Scattered at 1,200' AGL
Conditions
Becoming Nov-18 @ 15:00 - Nov-18 @ 18:00
Wind Visibility
120° at 5 knots 10,000+ meters
Clouds
  • Scattered at 2,000' AGL
  • Few at 2,500' AGL
Conditions